Pagina principale
METAR-TAF:

METAR-TAF

Aeroporti :

Aeroporto di Piacenza-San Damiano

Piacenza, Italia

latitudine: 44-55N, longitudine: 009-44E, altezza: 134 m

Osservazione

Il bollettino è stato emesso 26 minuti fa, alle 13:20 UTC
Vento 1 kt da sud/sud-est
Temperature 6°C
Umidità 100%
Pressione 1015 hPa
Visibilità: 1600 m
Nubi sparse ad un'altezza di 300 ft
foschia

METAR: LIMS 061320Z 15001KT 1600 BR SCT003 06/06 Q1015 RMK SCT VIS MIN 1600 WIND THR30 33001KT YLO

Ora: 14:46 (13:46 UTC)


TAF: mancante

Osservazioni e previsioni meteorologiche di più di 4000 aeroporti (messaggi METAR e TAF).

Le stazioni disponibili sono rappresentate dai dischi gialli e rossi sulla carta.

Puntare il mouse per vedere il nome della stazione.

Clicca sopra per visualizzare le osservazioni e previsioni meteorologiche.

Per cambiare la mappa : fare clic sui pulsanti verdi con una croce nera per ingrandire, il pulsante verde con un trattino per diminuire, o sulla freccia verde per le mappe adiacenti.


METAR-TAF: